createdAt,value
2018-11-05T00:00:02.207Z,9.03
2018-11-05T00:02:30.314Z,13.00
2018-11-05T00:04:58.520Z,13.77
2018-11-05T00:07:26.791Z,10.60
2018-11-05T00:09:55.108Z,11.67
2018-11-05T00:12:23.355Z,11.57
2018-11-05T00:14:51.842Z,12.20
2018-11-05T00:17:20.139Z,20.20
2018-11-05T00:19:48.478Z,12.97
2018-11-05T00:22:16.861Z,12.90
2018-11-05T00:24:45.008Z,10.33
2018-11-05T00:27:13.451Z,12.23
2018-11-05T00:29:41.499Z,44.03
2018-11-05T00:32:09.972Z,14.90
2018-11-05T00:34:38.244Z,8.97
2018-11-05T00:37:06.762Z,12.07
2018-11-05T00:39:35.243Z,13.67
2018-11-05T00:42:03.499Z,12.47
2018-11-05T00:44:32.039Z,14.53
2018-11-05T00:47:00.226Z,11.63
2018-11-05T00:49:28.548Z,16.03
2018-11-05T00:51:56.755Z,10.77
2018-11-05T00:54:24.874Z,14.27
2018-11-05T00:56:53.239Z,10.87
2018-11-05T00:59:21.411Z,17.17
2018-11-05T01:01:49.674Z,10.03
2018-11-05T01:04:18.163Z,14.90
2018-11-05T01:06:46.421Z,14.17
2018-11-05T01:09:14.757Z,10.23
2018-11-05T01:11:43.003Z,12.63
2018-11-05T01:14:11.253Z,10.37
2018-11-05T01:16:39.370Z,8.33
2018-11-05T01:19:07.636Z,18.87
2018-11-05T01:21:36.159Z,10.17
2018-11-05T01:24:04.481Z,13.57
2018-11-05T01:26:32.870Z,10.50
2018-11-05T01:29:01.331Z,11.57
2018-11-05T01:31:29.620Z,11.57
2018-11-05T01:33:57.923Z,12.50
2018-11-05T01:36:26.363Z,11.10
2018-11-05T01:38:54.920Z,11.40
2018-11-05T01:41:23.148Z,18.00
2018-11-05T01:43:51.604Z,13.73
2018-11-05T01:46:19.871Z,13.33
2018-11-05T01:48:48.390Z,13.63
2018-11-05T01:51:16.424Z,16.93
2018-11-05T01:53:44.573Z,15.77
2018-11-05T01:56:12.955Z,15.37
2018-11-05T01:58:41.176Z,14.33
2018-11-05T02:01:09.570Z,14.00
2018-11-05T02:03:37.812Z,16.30
2018-11-05T02:06:06.141Z,20.30
2018-11-05T02:08:34.603Z,23.20
2018-11-05T02:11:02.885Z,17.43
2018-11-05T02:13:31.184Z,15.77
2018-11-05T02:15:59.653Z,18.20
2018-11-05T02:18:27.670Z,16.47
2018-11-05T02:20:55.941Z,14.10
2018-11-05T02:23:24.304Z,15.60
2018-11-05T02:25:52.675Z,14.57
2018-11-05T02:28:20.740Z,15.17
2018-11-05T02:30:48.687Z,13.97
2018-11-05T02:33:17.099Z,14.43
2018-11-05T02:35:45.189Z,12.43
2018-11-05T02:38:13.535Z,15.63
2018-11-05T02:40:41.724Z,12.17
2018-11-05T02:43:09.812Z,14.93
2018-11-05T02:45:38.171Z,14.87
2018-11-05T02:48:06.372Z,15.10
2018-11-05T02:50:34.635Z,16.13
2018-11-05T02:53:02.783Z,13.07
2018-11-05T02:55:30.981Z,13.20
2018-11-05T02:57:59.287Z,15.47
2018-11-05T03:00:27.588Z,13.00
2018-11-05T03:02:56.065Z,14.07
2018-11-05T03:05:24.336Z,14.30
2018-11-05T03:07:52.625Z,13.73
2018-11-05T03:10:20.823Z,12.53
2018-11-05T03:12:48.983Z,11.77
2018-11-05T03:15:18.178Z,10.70
2018-11-05T03:17:46.279Z,11.97
2018-11-05T03:20:15.315Z,11.90
2018-11-05T03:22:43.952Z,9.50
2018-11-05T03:25:12.168Z,13.67
2018-11-05T03:27:41.065Z,13.60
2018-11-05T03:30:10.840Z,12.43
2018-11-05T03:32:38.809Z,13.27
2018-11-05T03:35:08.004Z,11.03
2018-11-05T03:37:36.082Z,15.00
2018-11-05T03:40:04.667Z,16.70
2018-11-05T03:42:33.142Z,15.03
2018-11-05T03:45:01.409Z,14.07
2018-11-05T03:47:29.706Z,16.57
2018-11-05T03:49:58.215Z,13.27
2018-11-05T03:52:30.542Z,11.27
2018-11-05T03:54:58.624Z,11.00
2018-11-05T03:57:26.879Z,13.90
2018-11-05T03:59:55.414Z,12.37
2018-11-05T04:02:23.701Z,14.30
2018-11-05T04:04:51.931Z,16.50
2018-11-05T04:07:20.247Z,28.83
2018-11-05T04:09:48.468Z,28.57
2018-11-05T04:12:16.751Z,27.87
2018-11-05T04:14:45.315Z,27.33
2018-11-05T04:17:13.508Z,25.73
2018-11-05T04:19:41.993Z,26.10
2018-11-05T04:22:10.310Z,20.67
2018-11-05T04:24:38.649Z,21.90
2018-11-05T04:27:06.815Z,17.23
2018-11-05T04:29:34.959Z,23.03
2018-11-05T04:32:02.981Z,21.93
2018-11-05T04:34:31.461Z,18.50
2018-11-05T04:36:59.722Z,18.27
2018-11-05T04:39:28.171Z,19.80
2018-11-05T04:41:56.239Z,23.07
2018-11-05T04:44:24.171Z,17.60
2018-11-05T04:46:52.591Z,21.43
2018-11-05T04:49:20.662Z,25.70
2018-11-05T04:51:48.556Z,22.73
2018-11-05T04:54:17.036Z,23.60
2018-11-05T04:56:45.314Z,22.47
2018-11-05T04:59:13.872Z,21.27
2018-11-05T05:01:42.098Z,24.13
2018-11-05T05:04:10.514Z,26.13
2018-11-05T05:06:38.668Z,30.93
2018-11-05T05:09:09.591Z,23.43
2018-11-05T05:11:38.058Z,21.90
2018-11-05T05:14:06.752Z,23.17
2018-11-05T05:16:35.291Z,19.43
2018-11-05T05:19:03.423Z,20.43
2018-11-05T05:21:31.750Z,22.87
2018-11-05T05:24:00.363Z,19.30
2018-11-05T05:26:28.513Z,20.47
2018-11-05T05:28:56.772Z,14.13
2018-11-05T05:31:25.123Z,19.13
2018-11-05T05:33:53.359Z,16.57
2018-11-05T05:36:21.827Z,17.37
2018-11-05T05:38:49.899Z,14.50
2018-11-05T05:41:18.403Z,14.17
2018-11-05T05:43:46.686Z,17.20
2018-11-05T05:46:15.140Z,15.93
2018-11-05T05:48:43.618Z,13.80
2018-11-05T05:51:11.972Z,11.47
2018-11-05T05:53:40.161Z,16.73
2018-11-05T05:56:08.418Z,11.67
2018-11-05T05:58:36.743Z,9.13
2018-11-05T06:01:04.906Z,16.93
2018-11-05T06:03:33.266Z,14.53
2018-11-05T06:06:01.541Z,14.90
2018-11-05T06:08:29.795Z,14.67
2018-11-05T06:10:57.888Z,12.67
2018-11-05T06:13:26.196Z,11.90
2018-11-05T06:15:54.951Z,11.37
2018-11-05T06:18:23.320Z,17.87
2018-11-05T06:20:51.418Z,21.53
2018-11-05T06:23:19.862Z,23.17
2018-11-05T06:25:48.172Z,20.00
2018-11-05T06:28:16.725Z,17.53
2018-11-05T06:30:44.900Z,18.43
2018-11-05T06:33:13.158Z,17.73
2018-11-05T06:35:40.934Z,18.70
2018-11-05T06:38:09.126Z,17.87
2018-11-05T06:40:37.411Z,14.47
2018-11-05T06:43:05.935Z,14.57
2018-11-05T06:45:34.239Z,12.23
2018-11-05T06:48:02.415Z,12.30
2018-11-05T06:50:30.691Z,11.20
2018-11-05T06:52:59.276Z,12.17
2018-11-05T06:55:27.717Z,11.83
2018-11-05T06:57:55.956Z,10.90
2018-11-05T07:00:25.349Z,12.27
2018-11-05T07:02:53.564Z,9.63
2018-11-05T07:05:22.049Z,12.33
2018-11-05T07:07:50.275Z,10.63
2018-11-05T07:10:19.160Z,12.30
2018-11-05T07:12:47.513Z,12.93
2018-11-05T07:15:16.899Z,11.57
2018-11-05T07:17:45.984Z,9.77
2018-11-05T07:20:15.559Z,11.13
2018-11-05T07:22:44.642Z,9.70
2018-11-05T07:25:13.719Z,12.43
2018-11-05T07:27:42.476Z,11.47
2018-11-05T07:30:14.079Z,10.20
2018-11-05T07:32:42.236Z,8.27
2018-11-05T07:35:12.042Z,7.55
2018-11-05T07:37:40.339Z,6.90
2018-11-05T07:40:09.564Z,10.20
2018-11-05T07:42:38.084Z,8.53
2018-11-05T07:45:08.514Z,7.70
2018-11-05T07:47:36.602Z,7.30
2018-11-05T07:50:05.859Z,11.07
2018-11-05T07:52:33.580Z,10.60
2018-11-05T07:55:01.403Z,9.43
2018-11-05T07:57:29.115Z,8.90
2018-11-05T07:59:57.407Z,8.20
2018-11-05T08:02:25.707Z,9.33
2018-11-05T08:04:54.147Z,10.27
2018-11-05T08:07:22.408Z,14.07
2018-11-05T08:09:51.019Z,7.10
2018-11-05T08:12:19.182Z,12.17
2018-11-05T08:14:47.416Z,8.20
2018-11-05T08:17:15.514Z,9.60
2018-11-05T08:19:44.007Z,7.77
2018-11-05T08:22:12.295Z,7.27
2018-11-05T08:24:40.783Z,9.67
2018-11-05T08:27:08.959Z,12.50
2018-11-05T08:29:36.776Z,11.67
2018-11-05T08:32:04.698Z,13.13
2018-11-05T08:34:32.475Z,13.13
2018-11-05T08:37:00.197Z,12.53
2018-11-05T08:39:28.040Z,13.23
2018-11-05T08:41:55.801Z,14.30
2018-11-05T08:44:23.525Z,11.30
2018-11-05T08:46:51.343Z,13.53
2018-11-05T08:49:19.020Z,13.53
2018-11-05T08:51:47.005Z,12.13
2018-11-05T08:54:14.601Z,12.03
2018-11-05T08:56:42.240Z,12.60
2018-11-05T08:59:09.991Z,8.63
2018-11-05T09:01:37.752Z,9.50
2018-11-05T09:04:05.544Z,6.90
2018-11-05T09:06:33.288Z,8.43
2018-11-05T09:09:01.119Z,8.10
2018-11-05T09:11:29.288Z,10.53
2018-11-05T09:13:56.699Z,8.87
2018-11-05T09:16:24.568Z,8.97
2018-11-05T09:18:52.328Z,8.43
2018-11-05T09:21:20.108Z,8.47
2018-11-05T09:23:47.859Z,9.10
2018-11-05T09:26:15.628Z,6.93
2018-11-05T09:28:43.376Z,11.53
2018-11-05T09:31:11.159Z,8.70
2018-11-05T09:33:38.927Z,12.07
2018-11-05T09:36:07.040Z,10.00
2018-11-05T09:38:35.323Z,7.80
2018-11-05T09:41:03.594Z,8.97
2018-11-05T09:43:31.818Z,7.73
2018-11-05T09:45:59.938Z,12.40
2018-11-05T09:48:28.167Z,8.80
2018-11-05T09:50:56.280Z,11.77
2018-11-05T09:53:24.015Z,12.53
2018-11-05T09:55:51.772Z,9.20
2018-11-05T09:58:20.093Z,11.17
2018-11-05T10:00:47.867Z,10.77
2018-11-05T10:03:16.705Z,9.10
2018-11-05T10:05:44.507Z,6.43
2018-11-05T10:08:12.297Z,6.97
2018-11-05T10:10:40.055Z,8.13
2018-11-05T10:13:07.828Z,7.23
2018-11-05T10:15:35.607Z,7.63
2018-11-05T10:18:03.363Z,10.53
2018-11-05T10:20:31.082Z,7.77
2018-11-05T10:22:58.871Z,6.00
2018-11-05T10:25:26.714Z,7.57
2018-11-05T10:27:58.990Z,7.57
2018-11-05T10:30:26.780Z,8.63
2018-11-05T10:32:54.522Z,4.63
2018-11-05T10:35:28.530Z,6.57
2018-11-05T10:37:56.279Z,6.70
2018-11-05T10:40:24.097Z,6.20
2018-11-05T10:42:52.050Z,8.40
2018-11-05T10:45:19.840Z,5.10
2018-11-05T10:47:47.749Z,8.33
2018-11-05T10:50:16.573Z,10.67
2018-11-05T10:52:45.807Z,7.50
2018-11-05T10:55:13.622Z,7.70
2018-11-05T10:57:41.899Z,6.30
2018-11-05T11:00:20.389Z,6.03
2018-11-05T11:03:19.668Z,8.87
2018-11-05T11:05:47.449Z,7.33
2018-11-05T11:08:15.168Z,7.60
2018-11-05T11:10:42.971Z,9.47
2018-11-05T11:13:10.752Z,9.83
2018-11-05T11:15:38.503Z,7.87
2018-11-05T11:18:06.296Z,7.70
2018-11-05T11:20:34.067Z,10.07
2018-11-05T11:23:01.763Z,9.63
2018-11-05T11:25:29.516Z,8.23
2018-11-05T11:27:57.350Z,7.17
2018-11-05T11:30:25.135Z,10.20
2018-11-05T11:32:53.291Z,11.77
2018-11-05T11:35:20.997Z,8.30
2018-11-05T11:37:48.743Z,8.60
2018-11-05T11:40:18.832Z,8.90
2018-11-05T11:42:47.243Z,9.77
2018-11-05T11:45:15.862Z,11.37
2018-11-05T11:47:43.574Z,12.33
2018-11-05T11:50:13.832Z,9.97
2018-11-05T11:52:41.590Z,11.20
2018-11-05T11:55:11.319Z,10.60
2018-11-05T11:57:39.395Z,9.27
2018-11-05T12:00:09.852Z,8.90
2018-11-05T12:02:37.581Z,9.77
2018-11-05T12:05:06.668Z,9.00
2018-11-05T12:07:34.391Z,8.83
2018-11-05T12:10:02.274Z,9.10
2018-11-05T12:12:30.018Z,7.57
2018-11-05T12:14:57.894Z,5.37
2018-11-05T12:17:25.620Z,10.23
2018-11-05T12:19:53.346Z,9.43
2018-11-05T12:22:21.079Z,8.60
2018-11-05T12:24:48.885Z,9.50
2018-11-05T12:27:16.635Z,5.90
2018-11-05T12:29:44.399Z,6.67
2018-11-05T12:32:12.221Z,7.43
2018-11-05T12:34:40.032Z,4.93
2018-11-05T12:37:07.823Z,5.50
2018-11-05T12:39:35.607Z,7.43
2018-11-05T12:42:03.388Z,8.20
2018-11-05T12:44:31.108Z,7.03
2018-11-05T12:46:58.887Z,5.90
2018-11-05T12:49:26.598Z,10.10
2018-11-05T12:51:54.383Z,7.33
2018-11-05T12:54:22.220Z,7.33
2018-11-05T12:56:49.996Z,9.23
2018-11-05T12:59:17.751Z,7.07
2018-11-05T13:01:45.547Z,8.63
2018-11-05T13:04:13.468Z,7.97
2018-11-05T13:06:41.262Z,5.10
2018-11-05T13:09:09.556Z,8.33
2018-11-05T13:11:37.347Z,7.00
2018-11-05T13:14:05.207Z,7.87
2018-11-05T13:16:33.120Z,8.07
2018-11-05T13:19:00.912Z,9.07
2018-11-05T13:21:28.742Z,9.80
2018-11-05T13:23:56.534Z,8.33
2018-11-05T13:26:24.344Z,6.53
2018-11-05T13:28:52.093Z,7.30
2018-11-05T13:31:19.900Z,7.20
2018-11-05T13:33:47.682Z,9.20
2018-11-05T13:36:15.435Z,7.83
2018-11-05T13:38:44.241Z,9.57
2018-11-05T13:41:11.933Z,10.83
2018-11-05T13:43:39.679Z,11.87
2018-11-05T13:46:07.694Z,9.83
2018-11-05T13:48:35.535Z,11.83
2018-11-05T13:51:02.947Z,9.47
2018-11-05T13:53:30.760Z,10.87
2018-11-05T13:55:58.450Z,10.33
2018-11-05T13:58:26.229Z,8.93
2018-11-05T14:00:54.040Z,8.23
2018-11-05T14:03:21.792Z,11.43
2018-11-05T14:05:49.564Z,13.07
2018-11-05T14:08:17.326Z,9.57
2018-11-05T14:10:45.124Z,9.53
2018-11-05T14:13:12.912Z,13.83
2018-11-05T14:15:40.651Z,12.17
2018-11-05T14:18:08.448Z,8.63
2018-11-05T14:20:36.170Z,11.10
2018-11-05T14:23:03.984Z,9.87
2018-11-05T14:25:32.483Z,10.17
2018-11-05T14:28:00.847Z,10.30
2018-11-05T14:30:29.062Z,9.53
2018-11-05T14:32:57.345Z,7.50
2018-11-05T14:35:25.600Z,9.47
2018-11-05T14:37:54.094Z,10.50
2018-11-05T14:40:22.590Z,13.63
2018-11-05T14:42:50.911Z,9.07
2018-11-05T14:45:20.111Z,11.13
2018-11-05T14:47:49.364Z,11.80
2018-11-05T14:50:18.966Z,13.93
2018-11-05T14:52:47.344Z,18.33
2018-11-05T14:55:16.714Z,17.80
2018-11-05T14:57:45.978Z,16.30
2018-11-05T15:00:16.219Z,17.17
2018-11-05T15:02:45.131Z,12.30
2018-11-05T15:05:13.635Z,16.20
2018-11-05T15:07:42.474Z,14.93
2018-11-05T15:10:12.846Z,16.53
2018-11-05T15:12:40.915Z,14.00
2018-11-05T15:15:09.919Z,14.67
2018-11-05T15:17:38.309Z,16.70
2018-11-05T15:20:09.164Z,13.47
2018-11-05T15:22:37.605Z,15.17
2018-11-05T15:25:06.077Z,15.33
2018-11-05T15:27:34.713Z,18.57
2018-11-05T15:30:03.166Z,21.63
2018-11-05T15:32:31.336Z,21.47
2018-11-05T15:34:59.551Z,17.20
2018-11-05T15:37:27.715Z,16.87
2018-11-05T15:39:55.980Z,19.70
2018-11-05T15:42:24.446Z,16.40
2018-11-05T15:44:52.723Z,22.60
2018-11-05T15:47:21.147Z,18.40
2018-11-05T15:49:48.936Z,18.20
2018-11-05T15:52:16.919Z,16.10
2018-11-05T15:54:45.219Z,15.33
2018-11-05T15:57:13.486Z,15.17
2018-11-05T15:59:42.026Z,18.97
2018-11-05T16:02:11.443Z,20.90
2018-11-05T16:04:40.673Z,17.60
2018-11-05T16:07:09.112Z,20.00
2018-11-05T16:09:38.215Z,26.67
2018-11-05T16:12:06.415Z,17.23
2018-11-05T16:14:34.888Z,22.03
2018-11-05T16:17:03.176Z,19.83
2018-11-05T16:19:31.389Z,23.13
2018-11-05T16:21:59.787Z,17.47
2018-11-05T16:24:28.277Z,19.53
2018-11-05T16:26:57.255Z,16.57
2018-11-05T16:29:25.624Z,19.57
2018-11-05T16:31:53.456Z,20.83
2018-11-05T16:34:21.336Z,22.80
2018-11-05T16:36:49.129Z,18.13
2018-11-05T16:39:16.982Z,24.37
2018-11-05T16:41:44.746Z,23.37
2018-11-05T16:44:12.453Z,20.80
2018-11-05T16:46:40.698Z,19.87
2018-11-05T16:49:08.510Z,22.37
2018-11-05T16:51:36.280Z,19.60
2018-11-05T16:54:04.804Z,20.67
2018-11-05T16:56:32.560Z,21.60
2018-11-05T16:59:00.346Z,20.93
2018-11-05T17:01:28.479Z,27.00
2018-11-05T17:03:55.939Z,26.57
2018-11-05T17:06:24.064Z,26.50
2018-11-05T17:08:52.506Z,50.30
2018-11-05T17:11:20.683Z,35.13
2018-11-05T17:13:48.817Z,47.20
2018-11-05T17:16:17.282Z,36.83
2018-11-05T17:18:45.578Z,39.23
2018-11-05T17:21:14.052Z,44.77
2018-11-05T17:23:42.095Z,40.50
2018-11-05T17:26:10.656Z,54.50
2018-11-05T17:28:38.362Z,29.47
2018-11-05T17:31:06.431Z,29.97
2018-11-05T17:33:34.127Z,26.00
2018-11-05T17:36:01.960Z,23.50
2018-11-05T17:38:29.738Z,24.07
2018-11-05T17:40:57.480Z,24.03
2018-11-05T17:43:26.119Z,20.40
2018-11-05T17:45:54.367Z,20.00
2018-11-05T17:48:22.883Z,28.30
2018-11-05T17:50:51.200Z,30.23
2018-11-05T17:53:19.323Z,33.27
2018-11-05T17:55:47.433Z,29.33
2018-11-05T17:58:15.792Z,36.40
2018-11-05T18:00:44.209Z,32.87
2018-11-05T18:03:12.442Z,26.97
2018-11-05T18:05:40.950Z,32.97
2018-11-05T18:08:09.179Z,34.00
2018-11-05T18:10:37.076Z,33.47
2018-11-05T18:13:05.555Z,31.27
2018-11-05T18:15:34.129Z,28.87
2018-11-05T18:18:02.343Z,23.40
2018-11-05T18:20:30.123Z,27.77
2018-11-05T18:22:58.039Z,25.97
2018-11-05T18:25:26.531Z,30.67
2018-11-05T18:27:54.835Z,26.40
2018-11-05T18:30:23.299Z,38.23
2018-11-05T18:32:51.618Z,37.73
2018-11-05T18:35:19.865Z,27.47
2018-11-05T18:37:49.470Z,30.30
2018-11-05T18:40:17.239Z,32.25
2018-11-05T18:42:45.649Z,30.63
2018-11-05T18:45:14.175Z,29.67
2018-11-05T18:47:42.425Z,42.43
2018-11-05T18:50:12.043Z,49.00
2018-11-05T18:52:40.652Z,47.17
2018-11-05T18:55:10.092Z,40.37
2018-11-05T18:57:38.484Z,29.83
2018-11-05T19:00:15.367Z,33.57
2018-11-05T19:02:43.724Z,32.47
2018-11-05T19:05:12.060Z,31.20
2018-11-05T19:07:40.379Z,25.80
2018-11-05T19:10:08.939Z,26.27
2018-11-05T19:12:37.185Z,27.73
2018-11-05T19:15:06.181Z,31.23
2018-11-05T19:17:34.675Z,28.00
2018-11-05T19:20:03.215Z,34.93
2018-11-05T19:22:33.019Z,27.53
2018-11-05T19:25:01.571Z,34.23
2018-11-05T19:27:29.843Z,32.47
2018-11-05T19:29:58.327Z,37.10
2018-11-05T19:32:26.558Z,38.17
2018-11-05T19:34:54.852Z,34.47
2018-11-05T19:37:23.338Z,32.77
2018-11-05T19:39:51.614Z,33.50
2018-11-05T19:42:20.234Z,36.17
2018-11-05T19:44:48.368Z,40.43
2018-11-05T19:47:16.888Z,32.10
2018-11-05T19:49:45.020Z,26.57
2018-11-05T19:52:13.611Z,32.37
2018-11-05T19:54:41.863Z,31.43
2018-11-05T19:57:10.369Z,33.70
2018-11-05T19:59:38.590Z,40.37
2018-11-05T20:02:07.631Z,37.37
2018-11-05T20:04:35.787Z,41.30
2018-11-05T20:07:04.330Z,34.17
2018-11-05T20:09:32.595Z,22.37
2018-11-05T20:12:00.749Z,27.53
2018-11-05T20:14:29.099Z,27.10
2018-11-05T20:16:56.999Z,24.00
2018-11-05T20:19:25.243Z,29.57
2018-11-05T20:21:53.482Z,31.17
2018-11-05T20:24:21.613Z,26.47
2018-11-05T20:26:50.113Z,26.77
2018-11-05T20:29:18.367Z,27.07
2018-11-05T20:31:46.990Z,27.40
2018-11-05T20:34:15.059Z,33.50
2018-11-05T20:36:42.672Z,32.27
2018-11-05T20:39:11.588Z,34.30
2018-11-05T20:41:39.764Z,35.07
2018-11-05T20:44:08.289Z,34.67
2018-11-05T20:46:36.547Z,35.53
2018-11-05T20:49:04.835Z,37.87
2018-11-05T20:51:33.039Z,33.53
2018-11-05T20:54:01.478Z,31.33
2018-11-05T20:56:29.639Z,32.60
2018-11-05T20:58:57.828Z,38.47
2018-11-05T21:01:26.169Z,42.37
2018-11-05T21:03:54.208Z,43.37
2018-11-05T21:06:22.711Z,40.40
2018-11-05T21:08:50.775Z,42.43
2018-11-05T21:11:19.283Z,47.40
2018-11-05T21:13:47.511Z,50.47
2018-11-05T21:16:16.339Z,43.37
2018-11-05T21:18:44.682Z,46.37
2018-11-05T21:21:13.018Z,44.70
2018-11-05T21:23:41.303Z,42.07
2018-11-05T21:26:09.679Z,47.13
2018-11-05T21:28:37.800Z,43.33
2018-11-05T21:31:06.095Z,50.80
2018-11-05T21:33:34.132Z,47.30
2018-11-05T21:36:02.574Z,48.17
2018-11-05T21:38:30.907Z,47.70
2018-11-05T21:40:59.412Z,44.50
2018-11-05T21:43:27.619Z,43.17
2018-11-05T21:45:55.743Z,47.43
2018-11-05T21:48:24.231Z,52.37
2018-11-05T21:50:52.388Z,45.37
2018-11-05T21:53:20.582Z,47.63
2018-11-05T21:55:48.803Z,43.57
2018-11-05T21:58:16.898Z,44.97
2018-11-05T22:00:45.435Z,48.07
2018-11-05T22:03:15.694Z,49.17
2018-11-05T22:05:44.027Z,43.80
2018-11-05T22:08:12.484Z,51.40
2018-11-05T22:10:40.699Z,56.63
2018-11-05T22:13:08.864Z,52.03
2018-11-05T22:15:42.946Z,46.33
2018-11-05T22:18:11.217Z,54.03
2018-11-05T22:20:39.440Z,51.07
2018-11-05T22:23:07.688Z,50.57
2018-11-05T22:25:36.089Z,51.00
2018-11-05T22:28:04.220Z,49.57
2018-11-05T22:30:32.714Z,54.65
2018-11-05T22:33:00.964Z,48.90
2018-11-05T22:35:29.339Z,53.50
2018-11-05T22:37:57.547Z,54.70
2018-11-05T22:40:25.686Z,45.77
2018-11-05T22:42:54.032Z,43.97
2018-11-05T22:45:22.142Z,53.20
2018-11-05T22:47:50.604Z,54.97
2018-11-05T22:50:18.920Z,59.33
2018-11-05T22:52:47.387Z,50.33
2018-11-05T22:55:15.659Z,50.97
2018-11-05T22:57:44.138Z,46.17
2018-11-05T23:00:21.805Z,41.50
2018-11-05T23:02:55.330Z,62.70
2018-11-05T23:05:23.574Z,65.97
2018-11-05T23:07:52.736Z,65.23
2018-11-05T23:10:21.010Z,47.93
2018-11-05T23:12:49.370Z,62.07
2018-11-05T23:15:17.898Z,45.77
2018-11-05T23:17:46.267Z,48.13
2018-11-05T23:20:14.588Z,89.93
2018-11-05T23:22:43.159Z,40.03
2018-11-05T23:25:11.485Z,40.90
2018-11-05T23:27:39.846Z,47.63
2018-11-05T23:30:09.652Z,52.93
2018-11-05T23:32:38.563Z,49.53
2018-11-05T23:35:07.435Z,48.03
2018-11-05T23:37:35.795Z,45.57
2018-11-05T23:40:04.539Z,54.40
2018-11-05T23:42:32.771Z,48.20
2018-11-05T23:45:01.019Z,42.27
2018-11-05T23:47:29.244Z,40.90
2018-11-05T23:49:58.012Z,39.00
2018-11-05T23:52:26.452Z,39.60
2018-11-05T23:54:54.745Z,42.53
2018-11-05T23:57:23.417Z,39.17
2018-11-05T23:59:51.940Z,44.90
